createdAt,value
2023-03-01T00:01:45.808Z,37.33
2023-03-01T00:04:14.510Z,37.27
2023-03-01T00:06:47.273Z,37.47
2023-03-01T00:09:16.353Z,37.37
2023-03-01T00:11:46.040Z,37.03
2023-03-01T00:14:14.755Z,36.97
2023-03-01T00:16:46.196Z,36.93
2023-03-01T00:19:17.555Z,37.10
2023-03-01T00:21:46.926Z,37.47
2023-03-01T00:24:15.194Z,36.37
2023-03-01T00:26:43.918Z,37.60
2023-03-01T00:29:12.461Z,37.80
2023-03-01T00:31:40.845Z,38.67
2023-03-01T00:34:11.539Z,38.50
2023-03-01T00:36:39.785Z,37.50
2023-03-01T00:39:13.113Z,38.37
2023-03-01T00:41:41.517Z,38.77
2023-03-01T00:44:10.163Z,38.70
2023-03-01T00:46:38.269Z,39.17
2023-03-01T00:49:06.607Z,38.67
2023-03-01T00:51:36.084Z,38.20
2023-03-01T00:54:05.136Z,37.93
2023-03-01T00:56:34.051Z,37.73
2023-03-01T00:59:02.575Z,38.30
2023-03-01T01:01:33.210Z,38.67
2023-03-01T01:04:03.664Z,38.63
2023-03-01T01:06:33.871Z,38.20
2023-03-01T01:09:05.222Z,39.10
2023-03-01T01:11:34.066Z,38.03
2023-03-01T01:14:02.219Z,38.27
2023-03-01T01:16:31.650Z,38.87
2023-03-01T01:19:00.549Z,38.57
2023-03-01T01:21:29.471Z,40.17
2023-03-01T01:23:57.875Z,40.17
2023-03-01T01:26:29.520Z,40.43
2023-03-01T01:28:59.103Z,39.00
2023-03-01T01:31:29.212Z,39.47
2023-03-01T01:33:58.088Z,39.90
2023-03-01T01:36:26.561Z,39.73
2023-03-01T01:38:55.186Z,40.40
2023-03-01T01:41:23.922Z,40.57
2023-03-01T01:44:16.333Z,39.27
2023-03-01T01:46:46.713Z,40.40
2023-03-01T01:49:25.018Z,40.50
2023-03-01T01:52:01.965Z,41.23
2023-03-01T01:54:37.851Z,40.83
2023-03-01T01:57:11.354Z,40.30
2023-03-01T01:59:43.474Z,41.87
2023-03-01T02:02:11.990Z,41.13
2023-03-01T02:04:40.515Z,41.07
2023-03-01T02:07:15.575Z,41.00
2023-03-01T02:09:47.657Z,41.47
2023-03-01T02:12:21.381Z,41.47
2023-03-01T02:14:51.354Z,41.03
2023-03-01T02:17:20.687Z,40.30
2023-03-01T02:20:02.117Z,40.97
2023-03-01T02:22:33.251Z,40.77
2023-03-01T02:25:12.404Z,41.27
2023-03-01T02:27:51.651Z,41.47
2023-03-01T02:30:23.159Z,40.63
2023-03-01T02:32:53.503Z,40.73
2023-03-01T02:35:22.092Z,40.07
2023-03-01T02:37:50.906Z,40.07
2023-03-01T02:40:22.650Z,41.37
2023-03-01T02:42:54.749Z,40.60
2023-03-01T02:45:24.775Z,40.50
2023-03-01T02:47:55.396Z,42.27
2023-03-01T02:50:48.652Z,41.43
2023-03-01T02:53:25.705Z,39.07
2023-03-01T02:55:53.839Z,40.83
2023-03-01T02:58:22.111Z,41.33
2023-03-01T03:00:51.915Z,41.57
2023-03-01T03:03:22.379Z,40.20
2023-03-01T03:05:51.139Z,41.20
2023-03-01T03:08:25.225Z,42.53
2023-03-01T03:10:53.992Z,41.30
2023-03-01T03:13:23.103Z,41.63
2023-03-01T03:15:53.268Z,41.23
2023-03-01T03:18:21.922Z,40.20
2023-03-01T03:20:53.900Z,41.40
2023-03-01T03:23:23.717Z,41.30
2023-03-01T03:25:52.307Z,41.07
2023-03-01T03:28:20.697Z,40.10
2023-03-01T03:30:50.617Z,41.57
2023-03-01T03:33:20.398Z,42.70
2023-03-01T03:35:50.617Z,42.57
2023-03-01T03:38:23.249Z,41.47
2023-03-01T03:40:53.133Z,41.50
2023-03-01T03:43:23.268Z,41.63
2023-03-01T03:45:53.218Z,42.17
2023-03-01T03:48:23.117Z,41.63
2023-03-01T03:50:53.024Z,41.87
2023-03-01T03:53:22.735Z,43.20
2023-03-01T03:55:52.763Z,42.73
2023-03-01T03:58:22.642Z,41.60
2023-03-01T04:00:53.701Z,41.17
2023-03-01T04:03:23.739Z,41.87
2023-03-01T04:05:52.525Z,40.27
2023-03-01T04:08:22.366Z,40.70
2023-03-01T04:10:52.325Z,41.27
2023-03-01T04:13:22.901Z,56.10
2023-03-01T04:15:51.537Z,63.67
2023-03-01T04:18:21.721Z,54.57
2023-03-01T04:20:53.300Z,55.63
2023-03-01T04:23:24.216Z,53.17
2023-03-01T04:25:56.367Z,69.60
2023-03-01T04:28:26.477Z,67.03
2023-03-01T04:30:55.460Z,78.77
2023-03-01T04:33:23.931Z,63.97
2023-03-01T04:35:53.630Z,55.90
2023-03-01T04:38:22.480Z,58.87
2023-03-01T04:40:50.475Z,53.07
2023-03-01T04:43:18.714Z,85.20
2023-03-01T04:45:46.830Z,62.87
2023-03-01T04:48:14.868Z,94.97
2023-03-01T04:50:42.859Z,99.53
2023-03-01T04:53:12.298Z,55.40
2023-03-01T04:55:40.316Z,71.70
2023-03-01T04:58:08.308Z,65.13
2023-03-01T05:00:36.713Z,69.30
2023-03-01T05:03:04.821Z,64.23
2023-03-01T05:05:34.650Z,43.20
2023-03-01T05:08:05.193Z,47.83
2023-03-01T05:10:37.224Z,61.30
2023-03-01T05:13:05.884Z,50.50
2023-03-01T05:15:34.380Z,70.23
2023-03-01T05:18:02.700Z,61.63
2023-03-01T05:20:32.230Z,62.23
2023-03-01T05:23:06.396Z,58.80
2023-03-01T05:25:41.175Z,67.97
2023-03-01T05:28:13.348Z,49.97
2023-03-01T05:30:48.313Z,47.23
2023-03-01T05:33:16.644Z,71.53
2023-03-01T05:35:49.667Z,46.60
2023-03-01T05:38:19.004Z,45.57
2023-03-01T05:40:50.426Z,41.23
2023-03-01T05:43:19.644Z,54.30
2023-03-01T05:45:48.046Z,35.40
2023-03-01T05:48:16.393Z,36.23
2023-03-01T05:50:46.676Z,43.20
2023-03-01T05:53:16.297Z,54.33
2023-03-01T05:55:44.951Z,50.60
2023-03-01T05:58:16.228Z,37.67
2023-03-01T06:00:45.409Z,35.03
2023-03-01T06:03:14.812Z,38.47
2023-03-01T06:05:44.247Z,34.10
2023-03-01T06:08:13.122Z,41.83
2023-03-01T06:10:42.181Z,69.70
2023-03-01T06:13:10.304Z,35.80
2023-03-01T06:15:39.705Z,36.03
2023-03-01T06:18:08.153Z,36.50
2023-03-01T06:20:36.499Z,34.50
2023-03-01T06:23:05.178Z,34.60
2023-03-01T06:25:33.503Z,34.97
2023-03-01T06:28:01.617Z,35.70
2023-03-01T06:30:29.867Z,36.50
2023-03-01T06:33:02.494Z,36.10
2023-03-01T06:35:33.088Z,36.53
2023-03-01T06:38:02.406Z,35.37
2023-03-01T06:40:32.274Z,35.47
2023-03-01T06:43:01.844Z,36.03
2023-03-01T06:45:30.805Z,35.87
2023-03-01T06:48:10.292Z,36.30
2023-03-01T06:50:39.359Z,36.43
2023-03-01T06:53:07.479Z,37.20
2023-03-01T06:55:35.620Z,34.33
2023-03-01T06:58:05.500Z,35.03
2023-03-01T07:00:34.290Z,35.97
2023-03-01T07:03:04.370Z,36.67
2023-03-01T07:05:35.746Z,36.37
2023-03-01T07:08:03.830Z,36.73
2023-03-01T07:10:31.830Z,37.83
2023-03-01T07:13:00.227Z,37.97
2023-03-01T07:15:29.369Z,38.10
2023-03-01T07:17:58.894Z,37.10
2023-03-01T07:20:27.377Z,35.43
2023-03-01T07:22:59.438Z,38.37
2023-03-01T07:25:27.662Z,37.70
2023-03-01T07:27:56.200Z,38.33
2023-03-01T07:30:26.984Z,39.60
2023-03-01T07:32:55.906Z,38.87
2023-03-01T07:35:24.806Z,39.30
2023-03-01T07:37:53.033Z,39.30
2023-03-01T07:40:22.603Z,38.63
2023-03-01T07:42:50.533Z,40.00
2023-03-01T07:45:18.538Z,39.90
2023-03-01T07:47:46.505Z,40.13
2023-03-01T07:50:14.724Z,40.47
2023-03-01T07:52:42.719Z,39.07
2023-03-01T07:55:11.780Z,40.17
2023-03-01T07:57:41.706Z,38.10
2023-03-01T08:00:12.801Z,39.13
2023-03-01T08:02:42.969Z,39.57
2023-03-01T08:05:12.179Z,39.03
2023-03-01T08:07:40.292Z,39.40
2023-03-01T08:10:09.157Z,39.27
2023-03-01T08:12:37.204Z,39.70
2023-03-01T08:15:08.139Z,39.77
2023-03-01T08:17:36.298Z,37.87
2023-03-01T08:20:07.438Z,39.60
2023-03-01T08:22:35.796Z,38.23
2023-03-01T08:25:03.876Z,38.80
2023-03-01T08:27:31.968Z,38.20
2023-03-01T08:29:59.911Z,38.20
2023-03-01T08:32:29.574Z,38.43
2023-03-01T08:34:57.942Z,38.27
2023-03-01T08:37:25.989Z,39.33
2023-03-01T08:39:54.054Z,38.13
2023-03-01T08:42:22.173Z,37.17
2023-03-01T08:44:50.252Z,35.97
2023-03-01T08:47:18.509Z,36.30
2023-03-01T08:49:48.052Z,35.50
2023-03-01T08:52:16.138Z,36.43
2023-03-01T08:54:44.284Z,35.07
2023-03-01T08:57:13.769Z,35.23
2023-03-01T08:59:42.498Z,35.67
2023-03-01T09:02:15.607Z,33.73
2023-03-01T09:04:44.343Z,31.47
2023-03-01T09:07:13.954Z,31.20
2023-03-01T09:09:42.057Z,28.67
2023-03-01T09:12:10.312Z,28.07
2023-03-01T09:14:39.878Z,26.10
2023-03-01T09:17:08.004Z,24.47
2023-03-01T09:19:36.304Z,24.57
2023-03-01T09:22:05.686Z,24.40
2023-03-01T09:24:35.921Z,22.07
2023-03-01T09:27:04.162Z,23.33
2023-03-01T09:29:32.338Z,23.47
2023-03-01T09:32:00.647Z,21.97
2023-03-01T09:34:28.709Z,21.63
2023-03-01T09:36:56.864Z,22.70
2023-03-01T09:39:25.068Z,22.77
2023-03-01T09:42:03.156Z,25.53
2023-03-01T09:44:36.599Z,18.37
2023-03-01T09:47:05.913Z,20.20
2023-03-01T09:49:37.483Z,21.67
2023-03-01T09:52:14.721Z,20.20
2023-03-01T09:54:42.759Z,18.00
2023-03-01T09:57:28.520Z,20.37
2023-03-01T10:00:12.455Z,21.27
2023-03-01T10:02:45.498Z,15.43
2023-03-01T10:05:29.685Z,14.60
2023-03-01T10:08:16.057Z,11.87
2023-03-01T10:10:48.395Z,5.37
2023-03-01T10:13:23.989Z,4.30
2023-03-01T10:15:56.211Z,4.40
2023-03-01T10:18:28.358Z,4.57
2023-03-01T10:20:59.470Z,5.30
2023-03-01T10:23:29.314Z,5.27
2023-03-01T10:26:18.397Z,4.50
2023-03-01T10:29:00.190Z,4.03
2023-03-01T10:31:38.268Z,4.43
2023-03-01T10:34:11.815Z,4.43
2023-03-01T10:36:43.308Z,4.90
2023-03-01T10:39:17.540Z,4.40
2023-03-01T10:41:57.545Z,4.07
2023-03-01T10:44:46.159Z,3.73
2023-03-01T10:47:21.459Z,3.83
2023-03-01T10:50:08.450Z,4.03
2023-03-01T10:52:38.513Z,4.00
2023-03-01T10:55:27.147Z,4.10
2023-03-01T10:58:10.226Z,4.57
2023-03-01T11:00:49.854Z,4.70
2023-03-01T11:03:22.727Z,4.50
2023-03-01T11:05:57.188Z,3.90
2023-03-01T11:08:41.347Z,4.57
2023-03-01T11:11:35.027Z,4.90
2023-03-01T11:14:19.680Z,4.93
2023-03-01T11:17:03.490Z,6.00
2023-03-01T11:19:31.907Z,4.27
2023-03-01T11:22:04.967Z,5.80
2023-03-01T11:25:07.105Z,6.10
2023-03-01T11:27:43.980Z,5.20
2023-03-01T11:30:21.995Z,5.70
2023-03-01T11:32:58.882Z,5.03
2023-03-01T11:35:29.916Z,5.83
2023-03-01T11:38:07.042Z,5.90
2023-03-01T11:40:39.430Z,5.87
2023-03-01T11:43:17.717Z,5.73
2023-03-01T11:45:57.066Z,5.20
2023-03-01T11:48:50.106Z,5.80
2023-03-01T11:51:27.845Z,6.33
2023-03-01T11:54:24.062Z,5.83
2023-03-01T11:56:59.930Z,5.40
2023-03-01T12:00:04.225Z,6.00
2023-03-01T12:03:03.764Z,4.83
2023-03-01T12:06:04.714Z,6.33
2023-03-01T12:08:40.130Z,5.77
2023-03-01T12:11:22.641Z,6.17
2023-03-01T12:14:14.406Z,6.50
2023-03-01T12:17:14.563Z,6.30
2023-03-01T12:19:58.746Z,5.70
2023-03-01T12:22:33.080Z,7.00
2023-03-01T12:25:16.863Z,7.03
2023-03-01T12:28:07.519Z,6.87
2023-03-01T12:30:53.644Z,6.13
2023-03-01T12:33:27.882Z,6.90
2023-03-01T12:36:29.749Z,6.70
2023-03-01T12:39:09.124Z,6.87
2023-03-01T12:41:51.190Z,6.50
2023-03-01T12:44:45.530Z,6.33
2023-03-01T12:47:25.502Z,6.80
2023-03-01T12:49:58.463Z,5.90
2023-03-01T12:52:40.991Z,6.30
2023-03-01T12:55:19.752Z,5.67
2023-03-01T12:57:57.075Z,5.87
2023-03-01T13:00:33.681Z,5.47
2023-03-01T13:03:14.311Z,5.23
2023-03-01T13:05:52.667Z,5.90
2023-03-01T13:08:29.502Z,5.23
2023-03-01T13:11:01.301Z,5.93
2023-03-01T13:13:32.258Z,5.37
2023-03-01T13:16:25.046Z,5.43
2023-03-01T13:19:09.220Z,4.83
2023-03-01T13:21:37.605Z,4.90
2023-03-01T13:24:06.510Z,5.33
2023-03-01T13:27:13.523Z,5.20
2023-03-01T13:29:49.621Z,4.80
2023-03-01T13:32:43.180Z,5.10
2023-03-01T13:35:46.373Z,4.47
2023-03-01T13:38:40.462Z,4.30
2023-03-01T13:41:09.511Z,3.87
2023-03-01T13:43:41.253Z,4.50
2023-03-01T13:46:14.992Z,4.93
2023-03-01T13:48:45.179Z,3.60
2023-03-01T13:51:14.685Z,4.10
2023-03-01T13:53:48.945Z,4.27
2023-03-01T13:56:20.725Z,4.37
2023-03-01T13:58:57.520Z,3.80
2023-03-01T14:01:31.293Z,3.70
2023-03-01T14:04:00.824Z,4.47
2023-03-01T14:06:31.476Z,4.43
2023-03-01T14:09:12.702Z,4.50
2023-03-01T14:12:16.949Z,4.83
2023-03-01T14:15:05.156Z,4.50
2023-03-01T14:17:48.101Z,4.50
2023-03-01T14:20:21.456Z,4.23
2023-03-01T14:22:51.586Z,3.40
2023-03-01T14:25:24.066Z,3.77
2023-03-01T14:28:04.713Z,3.93
2023-03-01T14:30:40.061Z,4.27
2023-03-01T14:33:20.536Z,4.70
2023-03-01T14:35:59.322Z,3.47
2023-03-01T14:38:35.867Z,4.13
2023-03-01T14:41:07.240Z,3.73
2023-03-01T14:43:36.156Z,4.23
2023-03-01T14:46:06.559Z,3.97
2023-03-01T14:48:35.112Z,3.90
2023-03-01T14:51:03.346Z,4.10
2023-03-01T14:53:40.048Z,3.33
2023-03-01T14:56:18.690Z,3.93
2023-03-01T14:58:48.705Z,4.20
2023-03-01T15:01:20.551Z,3.73
2023-03-01T15:03:50.356Z,4.07
2023-03-01T15:06:21.520Z,4.37
2023-03-01T15:08:52.814Z,4.43
2023-03-01T15:11:25.443Z,4.37
2023-03-01T15:13:55.144Z,4.10
2023-03-01T15:16:26.777Z,3.80
2023-03-01T15:18:58.064Z,4.47
2023-03-01T15:21:28.850Z,4.03
2023-03-01T15:23:58.886Z,3.80
2023-03-01T15:26:30.478Z,3.50
2023-03-01T15:29:01.368Z,3.43
2023-03-01T15:31:36.232Z,3.60
2023-03-01T15:34:24.481Z,3.75
2023-03-01T15:36:55.475Z,3.72
2023-03-01T15:39:40.876Z,3.77
2023-03-01T15:42:12.734Z,3.70
2023-03-01T15:44:44.359Z,3.67
2023-03-01T15:47:28.559Z,3.70
2023-03-01T15:49:57.767Z,3.97
2023-03-01T15:52:30.603Z,4.13
2023-03-01T15:55:01.469Z,4.13
2023-03-01T15:57:29.945Z,3.87
2023-03-01T15:59:59.420Z,4.20
2023-03-01T16:02:31.565Z,4.07
2023-03-01T16:04:59.967Z,3.63
2023-03-01T16:07:32.214Z,3.77
2023-03-01T16:10:00.571Z,3.70
2023-03-01T16:12:28.976Z,4.17
2023-03-01T16:14:58.774Z,4.13
2023-03-01T16:17:28.336Z,3.87
2023-03-01T16:20:09.894Z,3.77
2023-03-01T16:25:46.378Z,4.40
2023-03-01T16:44:25.166Z,3.67
2023-03-01T16:46:54.497Z,4.67
2023-03-01T16:49:22.789Z,4.10
2023-03-01T16:51:51.192Z,4.37
2023-03-01T16:54:19.440Z,4.03
2023-03-01T16:56:47.634Z,4.23
2023-03-01T16:59:15.863Z,4.30
2023-03-01T17:01:44.857Z,4.43
2023-03-01T17:04:15.130Z,4.33
2023-03-01T17:06:43.287Z,3.97
2023-03-01T17:09:12.802Z,3.73
2023-03-01T17:11:41.252Z,4.17
2023-03-01T17:14:09.615Z,4.00
2023-03-01T17:16:41.199Z,4.63
2023-03-01T17:19:09.793Z,5.17
2023-03-01T17:21:39.782Z,4.53
2023-03-01T17:24:08.332Z,5.30
2023-03-01T17:26:36.707Z,4.00
2023-03-01T17:29:05.621Z,4.47
2023-03-01T17:31:34.946Z,4.77
2023-03-01T17:34:03.400Z,4.77
2023-03-01T17:36:34.641Z,4.60
2023-03-01T17:39:04.600Z,4.50
2023-03-01T17:41:33.376Z,4.77
2023-03-01T17:44:02.099Z,4.23
2023-03-01T17:46:30.614Z,4.67
2023-03-01T17:48:58.873Z,5.27
2023-03-01T17:51:27.057Z,4.87
2023-03-01T17:53:55.140Z,4.27
2023-03-01T17:56:25.079Z,4.50
2023-03-01T17:58:53.523Z,4.70
2023-03-01T18:01:23.603Z,5.20
2023-03-01T18:03:52.935Z,4.73
2023-03-01T18:06:22.865Z,5.23
2023-03-01T18:08:51.280Z,4.87
2023-03-01T18:11:20.222Z,5.40
2023-03-01T18:13:51.312Z,5.20
2023-03-01T18:16:21.323Z,5.10
2023-03-01T18:18:53.484Z,5.20
2023-03-01T18:21:23.620Z,6.47
2023-03-01T18:23:52.263Z,6.00
2023-03-01T18:26:22.502Z,5.80
2023-03-01T18:28:53.994Z,5.00
2023-03-01T18:31:23.853Z,4.93
2023-03-01T18:33:55.811Z,5.10
2023-03-01T18:36:26.460Z,4.97
2023-03-01T18:38:56.373Z,5.17
2023-03-01T18:41:26.724Z,5.40
2023-03-01T18:43:57.577Z,6.00
2023-03-01T18:46:26.062Z,6.10
2023-03-01T18:48:55.398Z,5.70
2023-03-01T18:51:25.732Z,5.80
2023-03-01T18:53:54.183Z,6.30
2023-03-01T18:56:22.679Z,5.57
2023-03-01T18:58:51.120Z,6.03
2023-03-01T19:01:23.483Z,5.90
2023-03-01T19:03:52.717Z,6.17
2023-03-01T19:06:21.479Z,6.43
2023-03-01T19:08:49.665Z,6.37
2023-03-01T19:11:18.278Z,6.30
2023-03-01T19:13:47.870Z,6.40
2023-03-01T19:16:19.714Z,5.97
2023-03-01T19:18:51.388Z,6.10
2023-03-01T19:21:20.880Z,6.13
2023-03-01T19:23:49.800Z,6.20
2023-03-01T19:26:20.312Z,7.30
2023-03-01T19:28:48.692Z,6.60
2023-03-01T19:31:19.465Z,6.27
2023-03-01T19:33:50.075Z,6.43
2023-03-01T19:36:18.651Z,5.60
2023-03-01T19:38:46.721Z,6.60
2023-03-01T19:41:17.809Z,6.47
2023-03-01T19:43:46.950Z,6.67
2023-03-01T19:46:16.515Z,6.93
2023-03-01T19:48:45.902Z,6.77
2023-03-01T19:51:15.316Z,6.47
2023-03-01T19:53:43.942Z,6.63
2023-03-01T19:56:12.302Z,6.53
2023-03-01T19:58:41.086Z,6.13
2023-03-01T20:01:16.657Z,7.17
2023-03-01T20:03:45.973Z,6.57
2023-03-01T20:06:16.985Z,7.17
2023-03-01T20:08:45.564Z,8.27
2023-03-01T20:11:15.321Z,7.50
2023-03-01T20:13:43.682Z,7.77
2023-03-01T20:16:12.048Z,6.87
2023-03-01T20:18:40.156Z,7.87
2023-03-01T20:21:18.143Z,8.00
2023-03-01T20:23:53.624Z,7.17
2023-03-01T20:26:23.396Z,8.23
2023-03-01T20:28:53.845Z,7.73
2023-03-01T20:31:23.999Z,8.93
2023-03-01T20:33:52.337Z,8.03
2023-03-01T20:36:20.607Z,7.07
2023-03-01T20:38:48.959Z,7.93
2023-03-01T20:41:18.464Z,8.17
2023-03-01T20:43:53.682Z,8.67
2023-03-01T20:46:23.937Z,8.73
2023-03-01T20:48:52.687Z,8.43
2023-03-01T20:51:21.724Z,8.27
2023-03-01T20:53:49.945Z,8.73
2023-03-01T20:56:21.468Z,9.00
2023-03-01T20:58:49.526Z,8.93
2023-03-01T21:01:19.636Z,8.20
2023-03-01T21:03:48.027Z,8.33
2023-03-01T21:06:16.399Z,8.43
2023-03-01T21:08:44.617Z,8.63
2023-03-01T21:11:16.723Z,8.80
2023-03-01T21:13:46.576Z,8.70
2023-03-01T21:16:15.389Z,8.17
2023-03-01T21:18:43.840Z,9.07
2023-03-01T21:21:13.798Z,9.00
2023-03-01T21:23:43.651Z,8.90
2023-03-01T21:26:13.407Z,9.40
2023-03-01T21:28:42.906Z,9.57
2023-03-01T21:31:13.815Z,9.60
2023-03-01T21:33:45.094Z,10.10
2023-03-01T21:36:14.034Z,10.27
2023-03-01T21:38:44.384Z,9.60
2023-03-01T21:41:16.248Z,9.83
2023-03-01T21:43:45.887Z,9.90
2023-03-01T21:46:17.206Z,11.27
2023-03-01T21:48:47.040Z,10.07
2023-03-01T21:51:20.950Z,10.27
2023-03-01T21:53:50.615Z,9.70
2023-03-01T21:56:20.960Z,10.77
2023-03-01T21:58:49.685Z,10.37
2023-03-01T22:01:21.826Z,10.37
2023-03-01T22:03:50.300Z,10.53
2023-03-01T22:06:20.686Z,10.47
2023-03-01T22:08:50.965Z,11.17
2023-03-01T22:11:21.440Z,10.70
2023-03-01T22:13:52.431Z,10.57
2023-03-01T22:16:24.133Z,10.53
2023-03-01T22:18:52.674Z,11.43
2023-03-01T22:21:23.085Z,10.50
2023-03-01T22:23:52.004Z,11.50
2023-03-01T22:26:25.378Z,10.70
2023-03-01T22:28:54.365Z,11.50
2023-03-01T22:31:24.508Z,10.10
2023-03-01T22:33:53.042Z,10.23
2023-03-01T22:36:21.777Z,9.90
2023-03-01T22:38:50.400Z,10.33
2023-03-01T22:41:18.459Z,9.33
2023-03-01T22:43:47.006Z,9.33
2023-03-01T22:46:17.604Z,11.33
2023-03-01T22:48:48.082Z,10.20
2023-03-01T22:51:17.086Z,9.80
2023-03-01T22:53:45.750Z,9.60
2023-03-01T22:56:15.802Z,9.77
2023-03-01T22:58:44.336Z,9.80
2023-03-01T23:01:14.605Z,9.33
2023-03-01T23:03:43.101Z,9.17
2023-03-01T23:06:13.406Z,9.53
2023-03-01T23:08:42.108Z,9.43
2023-03-01T23:11:13.377Z,8.93
2023-03-01T23:13:41.955Z,10.53
2023-03-01T23:16:10.784Z,10.27
2023-03-01T23:18:39.132Z,10.03
2023-03-01T23:21:14.288Z,10.20
2023-03-01T23:23:43.297Z,10.10
2023-03-01T23:26:12.004Z,10.37
2023-03-01T23:28:40.961Z,9.57
2023-03-01T23:31:11.533Z,10.73
2023-03-01T23:33:39.672Z,10.63
2023-03-01T23:36:09.790Z,11.27
2023-03-01T23:38:39.512Z,12.10
2023-03-01T23:41:10.521Z,11.80
2023-03-01T23:43:38.652Z,11.53
2023-03-01T23:46:07.285Z,12.17
2023-03-01T23:48:35.513Z,12.10
2023-03-01T23:51:06.099Z,12.47
2023-03-01T23:53:37.029Z,12.27
2023-03-01T23:56:07.899Z,12.87
2023-03-01T23:58:36.060Z,13.67
